Main page
METAR-TAF:

METAR-TAF

Airports :

Fayette Regional Air Center

La Grange, Texas, United States

latitude: 29-54-29N, longitude: 096-57-00W, elevation: 325 ft

Current weather observation

The report was made 20 minutes ago, at 03:15 UTC
Wind 9 mph from the North/Northeast with gusts up to 16 mph
Temperature 45°F
Humidity 93%
Pressure 30.39 in. Hg
Visibility: 10 miles
Overcast at a height of 1500 ft

METAR: K3T5 110315Z AUTO 02008G14KT 10SM OVC015 07/06 A3039 RMK AO2 T00700055

Time: 21:35 (03:35 UTC)


TAF: missing

Weather observations and forecasts of more than 4000 airports (METAR and TAF reports).

The available stations are represented by yellow and red dots on the map.

Hover mouse over dot to see the name of the station.

Then click to see weather observations and forecasts.

To change the map : click on the green buttons with a black cross to zoom in, on the green button with a dash to zoom out, or on the green arrows for adjacent maps.


METAR-TAF: